Time;durP1;ratioP1;P1;durP2;ratioP2;P2;SDS_P1;SDS_P2;PMS_P1;PMS_P2;Temp;Humidity;BMP_temperature;BMP_pressure;BME280_temperature;BME280_humidity;BME280_pressure;Samples;Min_cycle;Max_cycle;Signal;HPM_P1;HPM_P2
2020/12/22 00:01:20;;;;;;;13.17;11.23;;;;;;;5.15;100.00;98070.66;4999202;28;20209;-72
2020/12/22 00:03:48;;;;;;;12.27;11.17;;;;;;;5.18;100.00;98075.66;4988686;28;20653;-72
2020/12/22 00:06:22;;;;;;;13.13;11.93;;;;;;;5.18;100.00;98066.94;5000276;28;20206;-73
2020/12/22 00:08:49;;;;;;;12.33;11.07;;;;;;;5.18;100.00;98073.03;4975404;28;20832;-72
2020/12/22 00:11:16;;;;;;;12.33;10.97;;;;;;;5.10;100.00;98072.81;5012795;28;20772;-73
2020/12/22 00:13:43;;;;;;;12.03;10.83;;;;;;;5.22;100.00;98053.41;5005615;28;20554;-71
2020/12/22 00:16:10;;;;;;;11.53;10.43;;;;;;;5.18;100.00;98056.41;5013441;28;20216;-74
2020/12/22 00:18:37;;;;;;;11.80;10.50;;;;;;;5.10;100.00;98054.41;4991187;28;20742;-72
2020/12/22 00:21:05;;;;;;;12.47;11.30;;;;;;;5.22;100.00;98052.56;5014175;28;20579;-73
2020/12/22 00:23:32;;;;;;;11.27;10.10;;;;;;;5.15;100.00;98039.13;4983397;28;20362;-72
2020/12/22 00:25:59;;;;;;;14.90;10.47;;;;;;;5.15;100.00;98049.66;5014781;28;20209;-72
2020/12/22 00:28:26;;;;;;;11.93;10.73;;;;;;;5.04;100.00;98066.28;5009940;28;20228;-72
2020/12/22 00:30:53;;;;;;;11.40;10.30;;;;;;;5.21;100.00;98058.78;5010823;28;20224;-72
2020/12/22 00:33:20;;;;;;;12.40;11.20;;;;;;;5.15;100.00;98059.31;4985695;28;20237;-72
2020/12/22 00:35:47;;;;;;;12.37;11.07;;;;;;;5.18;100.00;98091.41;5008234;28;20600;-72
2020/12/22 00:38:15;;;;;;;12.40;11.23;;;;;;;5.06;100.00;98092.41;5012693;28;20216;-72
2020/12/22 00:40:42;;;;;;;13.93;11.77;;;;;;;5.13;100.00;98090.97;4977378;28;20298;-71
2020/12/22 00:43:09;;;;;;;12.67;11.50;;;;;;;5.19;100.00;98090.47;5010325;28;20197;-72
2020/12/22 00:45:36;;;;;;;12.07;10.97;;;;;;;5.14;100.00;98076.03;5007935;28;20410;-72
2020/12/22 00:48:03;;;;;;;13.37;12.10;;;;;;;5.19;100.00;98084.34;5010955;28;20216;-72
2020/12/22 00:50:30;;;;;;;12.13;10.93;;;;;;;5.25;100.00;98077.78;4982022;28;20708;-72
2020/12/22 00:52:57;;;;;;;13.30;12.00;;;;;;;5.20;100.00;98072.88;5006653;28;20407;-72
2020/12/22 00:55:25;;;;;;;12.90;11.60;;;;;;;5.32;100.00;98065.78;4983717;28;20327;-72
2020/12/22 00:57:52;;;;;;;13.43;10.93;;;;;;;5.31;100.00;98067.59;5014662;28;20228;-71
2020/12/22 01:00:21;;;;;;;12.13;11.07;;;;;;;5.36;100.00;98061.94;5007775;28;20642;-72
2020/12/22 01:02:48;;;;;;;12.40;11.30;;;;;;;5.38;100.00;98052.13;5009237;28;20204;-73
2020/12/22 01:05:15;;;;;;;12.30;10.97;;;;;;;5.30;100.00;98059.81;4993274;28;20217;-73
2020/12/22 01:07:42;;;;;;;11.33;10.33;;;;;;;5.32;100.00;98050.84;5003449;28;20227;-72
2020/12/22 01:10:09;;;;;;;12.30;11.10;;;;;;;5.35;100.00;98047.97;5000305;28;20245;-73
2020/12/22 01:12:37;;;;;;;12.87;11.60;;;;;;;5.30;100.00;98050.16;4984488;28;20219;-73
2020/12/22 01:15:04;;;;;;;13.33;11.83;;;;;;;5.34;100.00;98051.56;4992279;28;20395;-72
2020/12/22 01:17:31;;;;;;;11.60;10.57;;;;;;;5.25;100.00;98048.88;5009353;28;20228;-72
2020/12/22 01:19:58;;;;;;;13.27;11.97;;;;;;;5.30;100.00;98060.66;4998872;28;20216;-73
2020/12/22 01:22:25;;;;;;;12.40;11.40;;;;;;;5.32;100.00;98058.75;4999879;28;20216;-71
2020/12/22 01:24:52;;;;;;;11.73;10.53;;;;;;;5.32;100.00;98058.75;4998040;28;20731;-72
2020/12/22 01:27:19;;;;;;;12.47;11.37;;;;;;;5.32;100.00;98045.59;4974761;28;20307;-72
2020/12/22 01:29:47;;;;;;;13.00;11.60;;;;;;;5.31;100.00;98040.47;5001392;28;20232;-73
2020/12/22 01:32:14;;;;;;;12.93;11.63;;;;;;;5.38;100.00;98033.72;5013730;28;20232;-72
2020/12/22 01:34:43;;;;;;;12.73;11.20;;;;;;;5.40;100.00;98028.34;5001169;28;20212;-73
2020/12/22 01:37:13;;;;;;;11.67;10.57;;;;;;;5.42;100.00;98029.88;4993334;28;20696;-73
2020/12/22 01:39:40;;;;;;;11.80;10.80;;;;;;;5.38;100.00;98028.47;5007941;28;20204;-72
2020/12/22 01:42:08;;;;;;;13.17;12.07;;;;;;;5.27;100.00;98041.69;4978295;28;20217;-72
2020/12/22 01:44:35;;;;;;;12.57;10.97;;;;;;;5.32;100.00;98037.72;5006549;28;20597;-74
2020/12/22 01:47:03;;;;;;;12.83;11.47;;;;;;;5.32;100.00;98036.88;5006626;28;20430;-72
2020/12/22 01:49:32;;;;;;;13.07;11.77;;;;;;;5.39;100.00;98032.75;5005575;28;20247;-73
2020/12/22 01:51:59;;;;;;;11.77;10.67;;;;;;;5.39;100.00;98037.19;4980816;28;20555;-71
2020/12/22 01:54:27;;;;;;;12.67;11.33;;;;;;;5.35;100.00;98033.97;5006533;28;20208;-72
2020/12/22 01:56:55;;;;;;;12.83;11.40;;;;;;;5.44;100.00;98042.88;4962336;28;20802;-73
2020/12/22 01:59:22;;;;;;;12.87;11.67;;;;;;;5.40;100.00;98044.94;4993119;28;20562;-72
2020/12/22 02:01:50;;;;;;;12.60;11.33;;;;;;;5.47;100.00;98038.19;5001772;28;20652;-72
2020/12/22 02:04:18;;;;;;;12.63;11.50;;;;;;;5.44;100.00;98040.25;5003234;28;20208;-71
2020/12/22 02:06:45;;;;;;;13.60;12.30;;;;;;;5.46;100.00;98030.44;4982844;28;20235;-73
2020/12/22 02:09:12;;;;;;;13.73;12.50;;;;;;;5.43;100.00;98020.19;5001374;28;20227;-72
2020/12/22 02:11:40;;;;;;;13.17;11.93;;;;;;;5.57;100.00;98014.59;5004883;28;20212;-72
2020/12/22 02:14:09;;;;;;;12.83;11.60;;;;;;;5.55;100.00;98010.44;4972329;28;20209;-73
2020/12/22 02:16:37;;;;;;;13.13;11.87;;;;;;;5.53;100.00;98017.63;4998412;28;20208;-74
2020/12/22 02:19:20;;;;;;;12.50;11.40;;;;;;;5.48;100.00;98026.72;5010431;28;20224;-72
2020/12/22 02:21:48;;;;;;;15.03;13.40;;;;;;;5.52;100.00;98024.66;4993513;28;20227;-71
2020/12/22 02:24:15;;;;;;;14.63;13.30;;;;;;;5.43;100.00;98025.44;4995329;28;21454;-73
2020/12/22 02:26:42;;;;;;;12.83;11.60;;;;;;;5.56;100.00;98020.81;5003847;28;20783;-72
2020/12/22 02:29:10;;;;;;;12.77;11.47;;;;;;;5.59;100.00;98024.97;4967803;28;20229;-73
2020/12/22 02:31:37;;;;;;;14.43;12.87;;;;;;;5.49;100.00;98035.44;5003332;28;20545;-72
2020/12/22 02:34:04;;;;;;;14.30;12.90;;;;;;;5.52;100.00;98037.81;5000745;28;20201;-73
2020/12/22 02:36:33;;;;;;;14.03;12.63;;;;;;;5.51;100.00;98036.13;5007752;28;20580;-73
2020/12/22 02:39:02;;;;;;;13.20;12.03;;;;;;;5.57;100.00;98032.16;4983028;28;20503;-73
2020/12/22 02:41:29;;;;;;;14.27;12.93;;;;;;;5.68;100.00;98026.81;4999164;28;20231;-73
2020/12/22 02:43:56;;;;;;;14.37;13.00;;;;;;;5.83;100.00;98026.44;5001142;28;20295;-72
2020/12/22 02:46:23;;;;;;;15.23;13.67;;;;;;;5.92;100.00;98017.78;4974235;28;20279;-73
2020/12/22 02:48:50;;;;;;;14.07;12.57;;;;;;;5.93;100.00;98014.19;5003668;28;20654;-73
2020/12/22 02:51:18;;;;;;;13.97;12.43;;;;;;;5.99;100.00;98013.63;5008104;28;20433;-72
2020/12/22 02:53:45;;;;;;;14.03;12.70;;;;;;;6.04;100.00;98011.47;4989407;28;20279;-73
2020/12/22 02:56:13;;;;;;;14.30;12.80;;;;;;;6.11;100.00;98009.13;5003788;28;20300;-72
2020/12/22 02:58:40;;;;;;;13.77;12.37;;;;;;;6.15;100.00;98010.53;5008037;28;20232;-72
2020/12/22 03:01:07;;;;;;;14.23;12.40;;;;;;;6.33;100.00;98001.94;4974262;28;20204;-72
2020/12/22 03:03:34;;;;;;;13.83;12.43;;;;;;;6.23;100.00;98000.16;5001589;28;20289;-72
2020/12/22 03:06:01;;;;;;;13.87;12.50;;;;;;;6.31;100.00;98007.38;5008260;28;20544;-72
2020/12/22 03:08:29;;;;;;;16.40;12.60;;;;;;;6.28;100.00;97994.47;4996659;28;20241;-73
2020/12/22 03:10:56;;;;;;;13.40;11.97;;;;;;;6.36;100.00;97991.16;4993707;28;20759;-73
2020/12/22 03:13:24;;;;;;;12.40;11.20;;;;;;;6.34;100.00;97979.94;5004810;28;20655;-71
2020/12/22 03:15:52;;;;;;;13.13;11.80;;;;;;;6.36;100.00;97978.84;4970850;28;21357;-71
2020/12/22 03:18:19;;;;;;;14.30;12.83;;;;;;;6.44;100.00;97965.00;5004518;28;20220;-70
2020/12/22 03:20:46;;;;;;;11.93;10.73;;;;;;;6.42;100.00;97969.53;5001759;28;20224;-72
2020/12/22 03:23:14;;;;;;;11.90;10.70;;;;;;;6.46;100.00;97962.19;4995970;28;20283;-74
2020/12/22 03:25:41;;;;;;;12.43;11.20;;;;;;;6.41;100.00;97964.41;4994923;28;20307;-73
2020/12/22 03:28:08;;;;;;;12.40;10.37;;;;;;;6.41;100.00;97975.75;5005401;28;20243;-73
2020/12/22 03:30:36;;;;;;;11.63;10.30;;;;;;;6.53;100.00;97980.91;4990355;28;20400;-73
2020/12/22 03:33:04;;;;;;;11.20;10.13;;;;;;;6.42;100.00;97976.63;4976978;28;20434;-73
2020/12/22 03:35:31;;;;;;;10.00;9.10;;;;;;;6.48;100.00;97976.91;5003113;28;20219;-71
2020/12/22 03:37:58;;;;;;;11.73;10.53;;;;;;;6.57;100.00;97975.22;5008432;28;20254;-72
2020/12/22 03:40:26;;;;;;;11.80;10.70;;;;;;;6.42;100.00;97980.06;4982002;28;20227;-72
2020/12/22 03:42:54;;;;;;;10.87;9.77;;;;;;;6.45;100.00;97976.34;5004534;28;20204;-73
2020/12/22 03:45:21;;;;;;;10.63;9.40;;;;;;;6.51;100.00;97979.25;5003720;28;20215;-72
2020/12/22 03:47:49;;;;;;;9.90;8.87;;;;;;;6.60;100.00;97984.66;4978991;28;20234;-72
2020/12/22 03:50:24;;;;;;;11.27;8.87;;;;;;;6.65;100.00;97966.63;5005854;28;20232;-73
2020/12/22 03:52:51;;;;;;;8.60;7.90;;;;;;;6.73;100.00;97969.38;5001727;28;20509;-71
2020/12/22 03:55:18;;;;;;;8.63;7.70;;;;;;;6.88;100.00;97966.34;4990788;28;20208;-71
2020/12/22 03:57:45;;;;;;;8.57;7.67;;;;;;;6.87;100.00;97957.59;4998305;28;20328;-72
2020/12/22 04:00:14;;;;;;;7.27;6.67;;;;;;;6.94;100.00;97958.69;4998862;28;20208;-73
2020/12/22 04:02:41;;;;;;;7.00;6.40;;;;;;;7.04;100.00;97965.75;4988295;28;20246;-73
2020/12/22 04:05:09;;;;;;;6.73;6.00;;;;;;;7.12;100.00;97965.88;4997712;28;20231;-74
2020/12/22 04:07:37;;;;;;;5.37;4.97;;;;;;;7.24;100.00;97964.72;5010027;28;20636;-72
2020/12/22 04:10:04;;;;;;;5.50;4.97;;;;;;;7.29;100.00;97958.19;4998034;28;20225;-71
2020/12/22 04:12:32;;;;;;;5.30;4.90;;;;;;;7.28;100.00;97967.06;5001130;28;20212;-73
2020/12/22 04:14:59;;;;;;;4.70;4.40;;;;;;;7.33;100.00;97956.91;5007482;28;20212;-74
2020/12/22 04:17:26;;;;;;;4.93;4.53;;;;;;;7.26;100.00;97953.19;4990362;28;20228;-73
2020/12/22 04:19:53;;;;;;;4.83;4.43;;;;;;;7.35;100.00;97966.34;4999817;28;20529;-72
2020/12/22 04:22:21;;;;;;;4.83;4.30;;;;;;;7.45;100.00;97962.84;5009256;28;20208;-73
2020/12/22 04:24:48;;;;;;;4.73;4.43;;;;;;;7.39;100.00;97957.19;4999098;28;20244;-73
2020/12/22 04:27:15;;;;;;;4.80;4.50;;;;;;;7.37;100.00;97943.31;4994305;28;20208;-73
2020/12/22 04:29:44;;;;;;;4.90;4.60;;;;;;;7.39;100.00;97951.09;5007941;28;20943;-73
2020/12/22 04:32:11;;;;;;;4.80;4.17;;;;;;;7.46;100.00;97944.25;5010451;28;20666;-72
2020/12/22 04:34:38;;;;;;;5.23;4.07;;;;;;;7.42;100.00;97949.94;4977468;28;20430;-73
2020/12/22 04:37:06;;;;;;;4.50;4.20;;;;;;;7.39;100.00;97949.28;5005965;28;20209;-73
2020/12/22 04:39:34;;;;;;;4.43;4.13;;;;;;;7.41;100.00;97953.56;5002927;28;20213;-71
2020/12/22 04:42:02;;;;;;;4.23;3.90;;;;;;;7.47;100.00;97955.63;4977612;28;20209;-73
2020/12/22 04:44:29;;;;;;;3.73;3.43;;;;;;;7.50;100.00;97944.78;4997728;28;20409;-71
2020/12/22 04:46:56;;;;;;;4.93;4.20;;;;;;;7.51;100.00;97944.66;5002601;28;20197;-70
2020/12/22 04:49:25;;;;;;;3.13;2.93;;;;;;;7.54;100.00;97954.06;4953889;28;20766;-72
2020/12/22 04:51:53;;;;;;;3.50;3.30;;;;;;;7.60;100.00;97960.56;4997215;28;20311;-71
2020/12/22 04:54:32;;;;;;;3.17;2.73;;;;;;;7.75;100.00;97966.19;5002157;28;20204;-72
2020/12/22 04:57:00;;;;;;;2.60;2.50;;;;;;;7.72;100.00;97962.03;4967118;28;20297;-71
2020/12/22 04:59:29;;;;;;;2.23;2.13;;;;;;;7.68;100.00;97958.88;5002860;28;20782;-72
2020/12/22 05:01:56;;;;;;;2.37;2.27;;;;;;;7.66;100.00;97960.81;5007494;28;20247;-74
2020/12/22 05:04:23;;;;;;;2.50;2.30;;;;;;;7.70;100.00;97965.81;4957621;28;20216;-73
2020/12/22 05:06:50;;;;;;;2.03;1.97;;;;;;;7.83;100.00;97953.09;4994160;28;20298;-70
2020/12/22 05:09:17;;;;;;;2.20;2.00;;;;;;;7.81;100.00;97958.53;5002669;28;20708;-70
2020/12/22 05:11:44;;;;;;;1.83;1.83;;;;;;;7.80;100.00;97959.50;4985030;28;20942;-70
2020/12/22 05:14:13;;;;;;;1.77;1.67;;;;;;;7.91;100.00;97955.81;4968816;28;20213;-73
2020/12/22 05:16:40;;;;;;;3.87;1.60;;;;;;;7.91;100.00;97955.00;5002750;28;20220;-72
2020/12/22 05:19:10;;;;;;;2.93;1.70;;;;;;;8.11;100.00;97963.63;4966253;28;20217;-73
2020/12/22 05:21:38;;;;;;;1.70;1.60;;;;;;;8.11;100.00;97964.44;4980699;28;20220;-71
2020/12/22 05:24:06;;;;;;;1.17;1.17;;;;;;;8.17;100.00;97963.03;4998967;28;20585;-73
2020/12/22 05:26:33;;;;;;;1.27;1.27;;;;;;;8.20;100.00;97959.25;5003133;28;20217;-75
2020/12/22 05:29:14;;;;;;;1.47;1.37;;;;;;;8.22;100.00;97962.59;4970528;28;20259;-73
2020/12/22 05:31:43;;;;;;;1.13;1.10;;;;;;;8.33;100.00;97962.34;5003730;28;20422;-73
2020/12/22 05:34:11;;;;;;;0.90;0.90;;;;;;;8.37;100.00;97962.91;4994163;28;20209;-73
2020/12/22 05:36:39;;;;;;;2.67;1.20;;;;;;;8.32;100.00;97965.13;4970851;28;20220;-74
2020/12/22 05:39:10;;;;;;;0.80;0.80;;;;;;;8.33;100.00;97962.34;5000612;28;20232;-70
2020/12/22 05:41:37;;;;;;;0.97;0.97;;;;;;;8.40;100.00;97947.56;4998750;28;20236;-70
2020/12/22 05:44:06;;;;;;;0.90;0.90;;;;;;;8.38;100.00;97957.44;4981983;28;20355;-70
2020/12/22 05:46:35;;;;;;;1.00;1.00;;;;;;;8.40;100.00;97952.03;4999818;28;20534;-71
2020/12/22 05:49:04;;;;;;;1.13;1.13;;;;;;;8.40;100.00;97958.13;4997671;28;20256;-71
2020/12/22 05:51:37;;;;;;;1.93;1.10;;;;;;;8.39;100.00;97956.47;4965181;28;20802;-70
2020/12/22 05:54:07;;;;;;;0.90;0.90;;;;;;;8.43;100.00;97950.88;4994234;28;20225;-69
2020/12/22 05:56:35;;;;;;;1.17;1.17;;;;;;;8.46;100.00;97946.13;5000409;28;20215;-69
2020/12/22 05:59:02;;;;;;;1.83;1.23;;;;;;;8.45;100.00;97956.84;4987588;28;20223;-69
2020/12/22 06:01:31;;;;;;;0.90;0.90;;;;;;;8.48;100.00;97965.31;5001027;28;20220;-71
2020/12/22 06:04:00;;;;;;;0.80;0.80;;;;;;;8.51;100.00;97965.03;4994656;28;20209;-70
2020/12/22 06:06:28;;;;;;;1.00;1.00;;;;;;;8.48;100.00;97965.31;4963927;28;20218;-70
2020/12/22 06:08:55;;;;;;;0.80;0.80;;;;;;;8.48;100.00;97965.31;5003229;28;20228;-71
2020/12/22 06:11:22;;;;;;;0.93;0.83;;;;;;;8.57;100.00;97966.25;5003821;28;20597;-71
2020/12/22 06:13:50;;;;;;;1.27;1.27;;;;;;;8.61;100.00;97970.25;5000941;28;20555;-69
2020/12/22 06:16:18;;;;;;;0.90;0.90;;;;;;;8.60;100.00;97971.22;4987993;28;20460;-71
2020/12/22 06:18:47;;;;;;;0.87;0.87;;;;;;;8.59;100.00;97979.28;4999549;28;20231;-69
2020/12/22 06:21:17;;;;;;;1.13;1.13;;;;;;;8.64;100.00;97974.38;4960122;28;21423;-68
2020/12/22 06:23:45;;;;;;;0.90;0.90;;;;;;;8.64;100.00;97977.00;5005467;28;20483;-70
2020/12/22 06:26:13;;;;;;;1.67;0.90;;;;;;;8.63;100.00;97970.91;4998219;28;20217;-66
2020/12/22 06:28:40;;;;;;;2.30;1.73;;;;;;;8.63;100.00;97973.56;5001440;28;20757;-69
2020/12/22 06:31:21;;;;;;;1.10;1.10;;;;;;;8.67;100.00;97974.91;4984962;28;20225;-67
2020/12/22 06:33:49;;;;;;;0.70;0.70;;;;;;;8.61;100.00;97978.16;5002758;28;20208;-69
2020/12/22 06:36:19;;;;;;;0.93;0.93;;;;;;;8.61;100.00;97974.69;4966764;28;20780;-70
2020/12/22 06:38:55;;;;;;;1.70;0.80;;;;;;;8.58;100.00;97985.56;5007245;28;20245;-69
2020/12/22 06:41:47;;;;;;;1.03;1.03;;;;;;;8.67;100.00;97974.91;4997847;28;20430;-70
2020/12/22 06:44:16;;;;;;;1.00;1.00;;;;;;;8.67;100.00;97989.91;5000577;28;20219;-70
2020/12/22 06:46:44;;;;;;;0.80;0.80;;;;;;;8.63;100.00;97986.75;4991941;28;20650;-69
2020/12/22 06:49:12;;;;;;;0.70;0.70;;;;;;;8.71;100.00;97996.56;4997960;28;20437;-70
2020/12/22 06:51:40;;;;;;;1.10;1.10;;;;;;;8.71;100.00;97995.75;5005670;28;20266;-69
2020/12/22 06:54:32;;;;;;;1.40;0.80;;;;;;;8.66;100.00;97998.81;4965269;28;20215;-68
2020/12/22 06:56:59;;;;;;;0.80;0.80;;;;;;;8.71;100.00;97996.56;5004248;28;20703;-70
2020/12/22 06:59:48;;;;;;;0.60;0.60;;;;;;;8.75;100.00;97997.09;5002624;28;20260;-69
2020/12/22 07:02:35;;;;;;;0.97;0.97;;;;;;;8.79;100.00;97991.38;4981840;28;20605;-69
2020/12/22 07:05:03;;;;;;;0.73;0.73;;;;;;;8.76;100.00;97994.31;4999353;28;20581;-69
2020/12/22 07:07:57;;;;;;;0.70;0.70;;;;;;;8.76;100.00;98001.41;4985065;28;20228;-70
2020/12/22 07:10:27;;;;;;;1.57;0.77;;;;;;;8.79;100.00;98004.56;4997058;28;20309;-70
2020/12/22 07:12:55;;;;;;;1.90;1.80;;;;;;;8.91;100.00;98010.47;4999566;28;20385;-73
2020/12/22 07:15:23;;;;;;;0.80;0.80;;;;;;;8.96;100.00;98010.81;4990020;28;20215;-73
2020/12/22 07:18:12;;;;;;;0.67;0.67;;;;;;;9.13;100.00;98005.66;4992692;28;20426;-74
2020/12/22 07:20:41;;;;;;;0.60;0.60;;;;;;;9.14;100.00;98009.94;5005725;28;20219;-73
2020/12/22 07:23:09;;;;;;;2.07;1.97;;;;;;;9.06;100.00;98004.59;5000373;28;20208;-72
2020/12/22 07:25:37;;;;;;;3.07;2.80;;;;;;;9.21;100.00;98010.97;4982363;28;20427;-75
2020/12/22 07:28:05;;;;;;;0.77;0.77;;;;;;;9.21;100.00;98012.81;5005169;28;20274;-74
2020/12/22 07:30:32;;;;;;;1.53;1.10;;;;;;;9.24;100.00;98020.44;5007579;28;20648;-71
2020/12/22 07:33:01;;;;;;;1.80;0.80;;;;;;;9.25;100.00;98022.09;4991169;28;20701;-69
2020/12/22 07:35:29;;;;;;;0.70;0.70;;;;;;;9.28;100.00;98021.78;5002671;28;20510;-71
2020/12/22 07:38:02;;;;;;;2.17;2.03;;;;;;;9.32;100.00;98019.66;5008150;28;20745;-69
2020/12/22 07:40:29;;;;;;;1.67;0.90;;;;;;;9.32;100.00;98014.38;4966024;28;20296;-70
2020/12/22 07:43:07;;;;;;;0.73;0.73;;;;;;;9.32;100.00;98015.19;5010539;28;20196;-68
2020/12/22 07:45:35;;;;;;;1.17;1.10;;;;;;;9.31;100.00;98018.81;5003642;28;20326;-70
2020/12/22 07:48:05;;;;;;;1.40;0.90;;;;;;;9.26;100.00;98013.19;4990847;28;20232;-70
2020/12/22 07:50:33;;;;;;;1.77;0.93;;;;;;;9.34;100.00;98013.22;5007075;28;20817;-70
2020/12/22 07:53:00;;;;;;;0.93;0.90;;;;;;;9.30;100.00;98013.72;5005425;28;20205;-70
2020/12/22 07:55:36;;;;;;;0.53;0.53;;;;;;;9.30;100.00;98019.00;4965569;28;20454;-70
2020/12/22 07:58:04;;;;;;;0.93;0.90;;;;;;;9.32;100.00;98025.78;5002536;28;20217;-70
2020/12/22 08:00:31;;;;;;;0.80;0.80;;;;;;;9.51;100.00;98026.56;5005641;28;20288;-70
2020/12/22 08:03:11;;;;;;;2.53;0.87;;;;;;;9.49;100.00;98026.72;4989819;28;20238;-71
2020/12/22 08:05:38;;;;;;;0.83;0.83;;;;;;;9.45;100.00;98025.38;5005702;28;20212;-67
2020/12/22 08:08:06;;;;;;;0.80;0.80;;;;;;;9.46;100.00;98034.97;5006011;28;20389;-71
2020/12/22 08:10:37;;;;;;;1.07;1.03;;;;;;;9.47;100.00;98028.69;4967030;28;20224;-72
2020/12/22 08:13:05;;;;;;;0.70;0.70;;;;;;;9.43;100.00;98034.44;5006156;28;20582;-71
2020/12/22 08:15:32;;;;;;;1.37;1.27;;;;;;;9.38;100.00;98038.38;5004737;28;21128;-71
2020/12/22 08:17:59;;;;;;;0.87;0.50;;;;;;;9.37;100.00;98030.59;5004374;28;20228;-70
2020/12/22 08:20:26;;;;;;;0.70;0.70;;;;;;;9.44;100.00;98028.16;4987946;28;20215;-70
2020/12/22 08:23:07;;;;;;;0.80;0.80;;;;;;;9.34;100.00;98039.66;5004885;28;20696;-70
2020/12/22 08:25:34;;;;;;;1.13;1.00;;;;;;;9.37;100.00;98036.72;4965539;28;20712;-70
2020/12/22 08:28:02;;;;;;;1.20;0.90;;;;;;;9.38;100.00;98041.00;5002687;28;20232;-71
2020/12/22 08:30:32;;;;;;;1.63;1.23;;;;;;;9.29;100.00;98041.94;5005156;28;20608;-71
2020/12/22 08:32:59;;;;;;;2.07;1.80;;;;;;;9.31;100.00;98034.69;4996285;28;20212;-71
2020/12/22 08:35:26;;;;;;;4.40;3.37;;;;;;;9.36;100.00;98036.88;4985251;28;20415;-70
2020/12/22 08:37:53;;;;;;;3.47;1.27;;;;;;;9.26;100.00;98037.78;5006976;28;20213;-71
2020/12/22 08:40:27;;;;;;;3.00;2.43;;;;;;;9.25;100.00;98045.88;4974958;28;20215;-72
2020/12/22 08:42:54;;;;;;;1.07;1.03;;;;;;;9.35;100.00;98037.88;4995932;28;20203;-70
2020/12/22 08:45:22;;;;;;;2.83;1.63;;;;;;;9.32;100.00;98044.28;5007519;28;20891;-72
2020/12/22 08:47:53;;;;;;;2.07;1.97;;;;;;;9.26;100.00;98051.00;4997561;28;20220;-72
2020/12/22 08:50:20;;;;;;;0.87;0.87;;;;;;;9.29;100.00;98054.34;4988926;28;20670;-71
2020/12/22 08:52:47;;;;;;;0.80;0.80;;;;;;;9.35;100.00;98059.03;5004341;28;20474;-71
2020/12/22 08:55:15;;;;;;;1.00;1.00;;;;;;;9.38;100.00;98054.25;5000236;28;20196;-72
2020/12/22 08:57:43;;;;;;;0.90;0.90;;;;;;;9.26;100.00;98060.78;4967920;28;20327;-71
2020/12/22 09:00:12;;;;;;;1.13;0.83;;;;;;;9.40;100.00;98064.69;5005555;28;20283;-70
2020/12/22 09:02:41;;;;;;;5.20;1.00;;;;;;;9.43;100.00;98064.38;5008174;28;20223;-71
2020/12/22 09:05:11;;;;;;;1.50;1.40;;;;;;;9.46;100.00;98057.91;4985513;28;20507;-72
2020/12/22 09:07:38;;;;;;;1.87;1.30;;;;;;;9.55;100.00;98071.06;5006117;28;20232;-71
2020/12/22 09:10:07;;;;;;;1.33;1.23;;;;;;;9.44;100.00;98071.31;5006390;28;20277;-69
2020/12/22 09:12:35;;;;;;;2.07;1.30;;;;;;;9.48;100.00;98067.38;4965032;28;20229;-71
2020/12/22 09:15:03;;;;;;;2.50;1.00;;;;;;;9.54;100.00;98071.22;5001348;28;20204;-72
2020/12/22 09:17:31;;;;;;;0.80;0.80;;;;;;;9.62;100.00;98070.41;5005701;28;20725;-73
2020/12/22 09:20:03;;;;;;;0.87;0.87;;;;;;;9.67;100.00;98061.03;4990403;28;20675;-73
2020/12/22 09:22:32;;;;;;;1.90;0.80;;;;;;;9.75;100.00;98065.56;5004630;28;20201;-72
2020/12/22 09:25:00;;;;;;;0.93;0.93;;;;;;;9.72;100.00;98055.28;5002393;28;20561;-69
2020/12/22 09:27:28;;;;;;;0.60;0.60;;;;;;;9.78;100.00;98065.25;4997883;28;20258;-73
2020/12/22 09:29:56;;;;;;;0.90;0.90;;;;;;;9.79;100.00;98061.59;4964374;28;20216;-71
2020/12/22 09:32:24;;;;;;;0.50;0.50;;;;;;;9.82;100.00;98069.22;5007989;28;20232;-72
2020/12/22 09:34:51;;;;;;;0.60;0.60;;;;;;;9.95;100.00;98057.38;4985233;28;20227;-72
2020/12/22 09:37:21;;;;;;;0.77;0.77;;;;;;;10.00;100.00;98063.00;5008062;28;20320;-71
2020/12/22 09:39:50;;;;;;;0.50;0.50;;;;;;;10.06;100.00;98065.06;5003110;28;20645;-70
2020/12/22 09:42:17;;;;;;;1.20;0.70;;;;;;;10.12;100.00;98061.75;5004199;28;20204;-71
2020/12/22 09:44:46;;;;;;;0.80;0.80;;;;;;;10.06;100.00;98062.41;4963110;28;20727;-71
2020/12/22 09:47:14;;;;;;;0.73;0.63;;;;;;;10.14;100.00;98062.44;5005298;28;20208;-71
2020/12/22 09:49:41;;;;;;;0.80;0.80;;;;;;;10.09;100.00;98064.72;4988181;28;20296;-70
2020/12/22 09:52:08;;;;;;;1.13;0.70;;;;;;;10.07;100.00;98063.22;4997398;28;20512;-72
2020/12/22 09:54:36;;;;;;;0.80;0.80;;;;;;;10.07;100.00;98060.56;5003850;28;20205;-70
2020/12/22 09:57:03;;;;;;;1.37;1.37;;;;;;;10.18;100.00;98070.06;4996692;28;20417;-71
2020/12/22 09:59:30;;;;;;;1.00;0.87;;;;;;;10.21;100.00;98061.78;4970405;28;20514;-72
2020/12/22 10:01:58;;;;;;;0.70;0.47;;;;;;;10.20;100.00;98068.88;5000888;28;20215;-71
2020/12/22 10:04:25;;;;;;;0.50;0.50;;;;;;;10.24;100.00;98062.31;4965197;28;20904;-71
2020/12/22 10:06:52;;;;;;;0.40;0.40;;;;;;;10.36;100.00;98073.41;4989539;28;20216;-72
2020/12/22 10:09:19;;;;;;;0.70;0.70;;;;;;;10.44;100.00;98072.66;4997815;28;20224;-71
2020/12/22 10:11:48;;;;;;;0.83;0.70;;;;;;;10.55;100.00;98068.88;4976938;28;20225;-72
2020/12/22 10:14:15;;;;;;;0.70;0.70;;;;;;;10.45;100.00;98071.66;4956034;28;20920;-72
2020/12/22 10:16:42;;;;;;;0.70;0.70;;;;;;;10.36;100.00;98073.41;4975907;28;20205;-70
2020/12/22 10:19:10;;;;;;;0.80;0.80;;;;;;;10.24;100.00;98066.75;4992377;28;20289;-71
2020/12/22 10:21:37;;;;;;;1.67;1.57;;;;;;;10.14;100.00;98062.44;4965999;28;20206;-70
2020/12/22 10:24:05;;;;;;;4.37;2.93;;;;;;;10.12;100.00;98058.28;4990038;28;20679;-71
2020/12/22 10:26:34;;;;;;;4.97;2.97;;;;;;;10.08;100.00;98057.78;4996946;28;20518;-72
2020/12/22 10:29:02;;;;;;;2.80;2.40;;;;;;;10.08;100.00;98059.59;4975477;28;20233;-70
2020/12/22 10:31:30;;;;;;;1.43;1.30;;;;;;;10.06;100.00;98054.47;4988508;28;20307;-72
2020/12/22 10:33:58;;;;;;;0.60;0.60;;;;;;;10.09;100.00;98061.25;4978010;28;20291;-70
2020/12/22 10:36:26;;;;;;;1.17;0.90;;;;;;;10.09;100.00;98063.88;4982459;28;21236;-73
2020/12/22 10:38:55;;;;;;;0.73;0.73;;;;;;;10.11;100.00;98062.75;4992567;28;20221;-70
2020/12/22 10:41:22;;;;;;;1.07;0.80;;;;;;;10.12;100.00;98061.75;4992481;28;20193;-71
2020/12/22 10:43:50;;;;;;;0.77;0.77;;;;;;;10.14;100.00;98073.03;4992286;28;20216;-70
2020/12/22 10:46:18;;;;;;;1.27;1.27;;;;;;;10.19;100.00;98083.13;4964411;28;20209;-73
2020/12/22 10:48:46;;;;;;;0.77;0.77;;;;;;;10.25;100.00;98084.31;4961500;28;20239;-72
2020/12/22 10:51:14;;;;;;;0.60;0.60;;;;;;;10.27;100.00;98085.81;4994412;28;20250;-72
2020/12/22 10:53:41;;;;;;;1.10;1.10;;;;;;;10.28;100.00;98081.34;4979195;28;20228;-71
2020/12/22 10:56:10;;;;;;;1.10;1.10;;;;;;;10.30;100.00;98081.19;4997408;28;20833;-72
2020/12/22 10:58:38;;;;;;;0.70;0.70;;;;;;;10.40;100.00;98092.50;4993303;28;20256;-72
2020/12/22 11:01:06;;;;;;;3.30;3.10;;;;;;;10.49;100.00;98096.84;4955768;28;20213;-71
2020/12/22 11:03:34;;;;;;;0.73;0.73;;;;;;;10.50;100.00;98092.38;4993051;28;20217;-71
2020/12/22 11:06:20;;;;;;;0.83;0.60;;;;;;;10.60;100.00;98089.56;4981434;28;20231;-74
2020/12/22 11:08:48;;;;;;;0.70;0.70;;;;;;;10.57;100.00;98085.44;4979265;28;20252;-69
2020/12/22 11:11:15;;;;;;;0.90;0.90;;;;;;;10.63;100.00;98092.75;4998547;28;20237;-71
2020/12/22 11:13:42;;;;;;;0.60;0.60;;;;;;;10.68;100.00;98092.28;4991293;28;20212;-70
2020/12/22 11:16:10;;;;;;;0.60;0.60;;;;;;;10.63;100.00;98094.59;4996452;28;20204;-69
2020/12/22 11:18:39;;;;;;;0.80;0.80;;;;;;;10.67;100.00;98085.31;4957627;28;20231;-70
2020/12/22 11:21:10;;;;;;;1.63;0.93;;;;;;;10.81;100.00;98078.56;4978635;28;20221;-71
2020/12/22 11:23:44;;;;;;;1.47;1.37;;;;;;;10.87;100.00;98091.16;4979609;28;20318;-70
2020/12/22 11:26:15;;;;;;;0.80;0.80;;;;;;;10.77;100.00;98085.13;4994523;28;20205;-71
2020/12/22 11:28:42;;;;;;;0.73;0.73;;;;;;;10.84;100.00;98081.69;4987601;28;20370;-70
2020/12/22 11:31:09;;;;;;;2.00;0.50;;;;;;;10.80;100.00;98085.66;4989886;28;20218;-71
2020/12/22 11:33:37;;;;;;;0.67;0.67;;;;;;;10.87;100.00;98093.78;4963633;28;20240;-69